Kamikawa Maru — JG5687 — position and weather

sailwx.info

Track history (hours):
 
Tides and Currents Weather Stations Pressure Air Temp Water Temp Dewpoint Dewpoint Depression Visibility Wind Speed Wind Dir Waves Ship Positions

Kamikawa Maru

Last reported at 2015-Aug-30 03:31 UTC. Time now 2015-Aug-30 03:37 UTC.
Position N 35°38' E 139°46'.

Length 162 m; draft 6.8 m.

Type: Cargo ship. MMSI: 431101012.

Date/timePositionNaut miles runAvg speedWind from/ knotsBaromVisibWave heightAir tempDewpointWater temp
2015-Aug-30 03:31N 35°38' E 139°46'0 0.0
2015-Aug-30 02:31N 35°38' E 139°46'0 0.0
2015-Aug-30 01:31N 35°38' E 139°46'0 0.0
2015-Aug-30 00:31N 35°38' E 139°46'0 0.1
2015-Aug-29 23:33N 35°38' E 139°46'1211.9
2015-Aug-29 22:34N 35°26' E 139°49'1110.9
2015-Aug-29 21:34N 35°16' E 139°47'1514.8
2015-Aug-29 20:33N 35°01' E 139°42'1613.2
2015-Aug-29 19:20N 34°50' E 139°56'1418.0
2015-Aug-29 18:33N 34°57' E 140°11'1817.5
2015-Aug-29 17:33N 35°06' E 140°29'1917.3
2015-Aug-29 16:28N 35°20' E 140°44'  
2015-Aug-24 17:33N 35°19' E 140°39'1815.6
2015-Aug-24 16:23N 35°05' E 140°25'1315.2
2015-Aug-24 15:34N 34°59' E 140°11'2013.6
2015-Aug-24 14:08N 34°52' E 139°49'813.9
2015-Aug-24 13:34N 34°58' E 139°42'1615.7
2015-Aug-24 12:33N 35°13' E 139°46'1312.8
2015-Aug-24 11:33N 35°26' E 139°46'1211.6
2015-Aug-24 10:33N 35°38' E 139°46'0 0.1
2015-Aug-24 09:33N 35°38' E 139°46'0 0.0
2015-Aug-24 08:33N 35°38' E 139°46'0 0.0
2015-Aug-24 07:33N 35°38' E 139°46'0 0.0
2015-Aug-24 06:33N 35°38' E 139°46'0 0.0
2015-Aug-24 05:33N 35°38' E 139°46'0 0.0
2015-Aug-24 04:30N 35°38' E 139°46'0 0.0
2015-Aug-24 03:30N 35°38' E 139°46'0 0.0
2015-Aug-24 02:30N 35°38' E 139°46'0 0.0
2015-Aug-24 01:33N 35°38' E 139°46'0 0.0
2015-Aug-24 00:33N 35°38' E 139°46'0 0.0
2015-Aug-23 23:33N 35°38' E 139°46'8 8.3
2015-Aug-23 22:33N 35°32' E 139°53'0 0.1
2015-Aug-23 21:33N 35°32' E 139°53'0 0.0
2015-Aug-23 20:27N 35°32' E 139°53'0 0.0
2015-Aug-23 19:33N 35°32' E 139°53'0 0.0
2015-Aug-23 18:33N 35°32' E 139°53'0 0.0
2015-Aug-23 17:33N 35°32' E 139°53'0 0.0
2015-Aug-23 16:30N 35°32' E 139°53'0 0.0
2015-Aug-23 15:33N 35°32' E 139°53'0 0.1
2015-Aug-23 14:33N 35°32' E 139°53'0 0.0
2015-Aug-23 13:33N 35°32' E 139°53'0 0.0
2015-Aug-23 12:24N 35°32' E 139°53'0 0.0
2015-Aug-23 11:30N 35°32' E 139°53'8 9.0
2015-Aug-23 10:34N 35°25' E 139°47'1111.4
2015-Aug-23 09:33N 35°14' E 139°47'1716.7
2015-Aug-23 08:33N 34°59' E 139°37'6018.3
2015-Aug-23 05:16N 34°30' E 138°33'18016.1
2015-Aug-22 18:04N 33°58' E 134°58'1019.9
2015-Aug-22 17:33N 34°09' E 134°57'1616.2
2015-Aug-22 16:33N 34°25' E 135°01'1211.7
2015-Aug-22 15:33N 34°36' E 135°02'1414.3
2015-Aug-22 14:33N 34°32' E 134°46'  
Track history (hours):
 
Tides and Currents Weather Stations Pressure Air Temp Water Temp Dewpoint Dewpoint Depression Visibility Wind Speed Wind Dir Waves Ship Positions

Kamikawa Maru

Last reported at 2015-Aug-30 03:31 UTC. Time now 2015-Aug-30 03:37 UTC.
Position N 35°38' E 139°46'.

Length 162 m; draft 6.8 m.

Type: Cargo ship. MMSI: 431101012.

Date/timePositionNaut miles runAvg speedWind from/ knotsBaromVisibWave heightAir tempDewpointWater temp
2015-Aug-30 03:31N 35°38' E 139°46'0 0.0
2015-Aug-30 02:31N 35°38' E 139°46'0 0.0
2015-Aug-30 01:31N 35°38' E 139°46'0 0.0
2015-Aug-30 00:31N 35°38' E 139°46'0 0.1
2015-Aug-29 23:33N 35°38' E 139°46'1211.9
2015-Aug-29 22:34N 35°26' E 139°49'1110.9
2015-Aug-29 21:34N 35°16' E 139°47'1514.8
2015-Aug-29 20:33N 35°01' E 139°42'1613.2
2015-Aug-29 19:20N 34°50' E 139°56'1418.0
2015-Aug-29 18:33N 34°57' E 140°11'1817.5
2015-Aug-29 17:33N 35°06' E 140°29'1917.3
2015-Aug-29 16:28N 35°20' E 140°44'  
2015-Aug-24 17:33N 35°19' E 140°39'1815.6
2015-Aug-24 16:23N 35°05' E 140°25'1315.2
2015-Aug-24 15:34N 34°59' E 140°11'2013.6
2015-Aug-24 14:08N 34°52' E 139°49'813.9
2015-Aug-24 13:34N 34°58' E 139°42'1615.7
2015-Aug-24 12:33N 35°13' E 139°46'1312.8
2015-Aug-24 11:33N 35°26' E 139°46'1211.6
2015-Aug-24 10:33N 35°38' E 139°46'0 0.1
2015-Aug-24 09:33N 35°38' E 139°46'0 0.0
2015-Aug-24 08:33N 35°38' E 139°46'0 0.0
2015-Aug-24 07:33N 35°38' E 139°46'0 0.0
2015-Aug-24 06:33N 35°38' E 139°46'0 0.0
2015-Aug-24 05:33N 35°38' E 139°46'0 0.0
2015-Aug-24 04:30N 35°38' E 139°46'0 0.0
2015-Aug-24 03:30N 35°38' E 139°46'0 0.0
2015-Aug-24 02:30N 35°38' E 139°46'0 0.0
2015-Aug-24 01:33N 35°38' E 139°46'0 0.0
2015-Aug-24 00:33N 35°38' E 139°46'0 0.0
2015-Aug-23 23:33N 35°38' E 139°46'8 8.3
2015-Aug-23 22:33N 35°32' E 139°53'0 0.1
2015-Aug-23 21:33N 35°32' E 139°53'0 0.0
2015-Aug-23 20:27N 35°32' E 139°53'0 0.0
2015-Aug-23 19:33N 35°32' E 139°53'0 0.0
2015-Aug-23 18:33N 35°32' E 139°53'0 0.0
2015-Aug-23 17:33N 35°32' E 139°53'0 0.0
2015-Aug-23 16:30N 35°32' E 139°53'0 0.0
2015-Aug-23 15:33N 35°32' E 139°53'0 0.1
2015-Aug-23 14:33N 35°32' E 139°53'0 0.0
2015-Aug-23 13:33N 35°32' E 139°53'0 0.0
2015-Aug-23 12:24N 35°32' E 139°53'0 0.0
2015-Aug-23 11:30N 35°32' E 139°53'8 9.0
2015-Aug-23 10:34N 35°25' E 139°47'1111.4
2015-Aug-23 09:33N 35°14' E 139°47'1716.7
2015-Aug-23 08:33N 34°59' E 139°37'6018.3
2015-Aug-23 05:16N 34°30' E 138°33'18016.1
2015-Aug-22 18:04N 33°58' E 134°58'1019.9
2015-Aug-22 17:33N 34°09' E 134°57'1616.2
2015-Aug-22 16:33N 34°25' E 135°01'1211.7
2015-Aug-22 15:33N 34°36' E 135°02'1414.3
2015-Aug-22 14:33N 34°32' E 134°46'  

Dump ship's entire track history